Time;durP1;ratioP1;P1;durP2;ratioP2;P2;SDS_P1;SDS_P2;PMS_P1;PMS_P2;Temp;Humidity;BMP_temperature;BMP_pressure;BME280_temperature;BME280_humidity;BME280_pressure;Samples;Min_cycle;Max_cycle;Signal;HPM_P1;HPM_P2
2022/08/09 00:00:25;;;;;;;4.90;4.60;;;19.00;99.90;;;;;;5086214;28;20258;-54
2022/08/09 00:02:53;;;;;;;3.93;3.83;;;18.90;99.90;;;;;;5094797;28;20637;-53
2022/08/09 00:05:21;;;;;;;3.90;3.80;;;18.80;99.90;;;;;;5090655;28;20193;-54
2022/08/09 00:07:48;;;;;;;4.63;4.37;;;18.60;99.90;;;;;;5090448;28;20258;-53
2022/08/09 00:10:15;;;;;;;4.93;4.63;;;18.50;99.90;;;;;;5097052;28;20204;-53
2022/08/09 00:12:42;;;;;;;5.27;5.07;;;18.40;99.90;;;;;;5088921;28;20200;-53
2022/08/09 00:15:11;;;;;;;5.20;5.10;;;18.30;99.90;;;;;;5078748;28;20196;-53
2022/08/09 00:17:38;;;;;;;5.03;4.93;;;18.20;99.90;;;;;;5098791;28;20216;-53
2022/08/09 00:20:06;;;;;;;5.17;4.97;;;18.20;99.90;;;;;;5093669;28;20193;-53
2022/08/09 00:22:34;;;;;;;5.53;5.33;;;18.10;99.90;;;;;;5091210;28;20228;-54
2022/08/09 00:25:00;;;;;;;5.23;4.93;;;18.00;99.90;;;;;;5096622;28;20208;-53
2022/08/09 00:27:28;;;;;;;5.20;5.00;;;18.00;99.90;;;;;;5089125;28;20253;-53
2022/08/09 00:29:55;;;;;;;5.63;5.43;;;17.90;99.90;;;;;;5086161;28;20784;-53
2022/08/09 00:32:23;;;;;;;5.83;5.47;;;17.90;99.90;;;;;;5094220;28;20200;-53
2022/08/09 00:34:50;;;;;;;5.07;4.97;;;17.90;99.90;;;;;;5087325;28;20269;-53
2022/08/09 00:37:17;;;;;;;5.37;5.10;;;17.90;99.90;;;;;;5092450;28;20269;-53
2022/08/09 00:39:44;;;;;;;4.83;4.63;;;17.90;99.90;;;;;;5078353;28;20657;-53
2022/08/09 00:42:11;;;;;;;5.20;5.00;;;17.90;99.90;;;;;;5078096;28;20196;-53
2022/08/09 00:44:39;;;;;;;5.20;5.00;;;17.90;99.90;;;;;;5081590;28;20311;-53
2022/08/09 00:47:06;;;;;;;5.37;5.07;;;17.90;99.90;;;;;;5092579;28;20192;-53
2022/08/09 00:49:34;;;;;;;5.07;4.97;;;17.80;99.90;;;;;;5103071;28;20245;-53
2022/08/09 00:52:01;;;;;;;5.07;4.77;;;17.80;99.90;;;;;;5099190;28;20192;-53
2022/08/09 00:54:29;;;;;;;5.33;5.17;;;17.80;99.90;;;;;;5095776;28;20273;-53
2022/08/09 00:56:56;;;;;;;5.40;5.10;;;17.70;99.90;;;;;;5087223;28;20220;-53
2022/08/09 00:59:23;;;;;;;5.43;5.23;;;17.70;99.90;;;;;;5092728;28;20588;-53
2022/08/09 01:01:52;;;;;;;5.73;5.40;;;17.70;99.90;;;;;;5090867;28;20201;-53
2022/08/09 01:04:26;;;;;;;5.00;4.90;;;17.70;99.90;;;;;;5099972;28;20219;-53
2022/08/09 01:07:04;;;;;;;5.70;5.30;;;17.60;99.90;;;;;;5090974;28;20227;-53
2022/08/09 01:09:37;;;;;;;5.17;5.00;;;17.60;99.90;;;;;;5101676;28;20195;-53
2022/08/09 01:12:13;;;;;;;5.47;5.27;;;17.60;99.90;;;;;;5080141;28;20294;-53
2022/08/09 01:14:45;;;;;;;5.33;5.23;;;17.50;99.90;;;;;;5091323;28;20263;-53
2022/08/09 01:17:18;;;;;;;5.60;5.40;;;17.50;99.90;;;;;;5094063;28;20301;-53
2022/08/09 01:19:54;;;;;;;5.57;5.23;;;17.50;99.90;;;;;;5092050;28;20682;-53
2022/08/09 01:22:52;;;;;;;5.50;5.30;;;17.40;99.90;;;;;;5082642;28;20245;-53
2022/08/09 01:25:36;;;;;;;5.90;5.60;;;17.50;99.90;;;;;;5086384;28;20720;-53
2022/08/09 01:28:07;;;;;;;6.10;5.83;;;17.50;99.90;;;;;;5085089;28;20702;-53
2022/08/09 01:30:37;;;;;;;5.97;5.77;;;17.50;99.90;;;;;;5085405;28;20615;-53
2022/08/09 01:33:08;;;;;;;6.80;6.17;;;17.50;99.90;;;;;;5096318;28;20225;-53
2022/08/09 01:35:39;;;;;;;6.00;5.53;;;17.50;99.90;;;;;;5091265;28;20208;-53
2022/08/09 01:38:10;;;;;;;6.23;5.83;;;17.40;99.90;;;;;;5101936;28;20228;-53
2022/08/09 01:40:39;;;;;;;6.00;5.70;;;17.40;99.90;;;;;;5102638;28;20200;-53
2022/08/09 01:43:10;;;;;;;6.23;5.90;;;17.30;99.90;;;;;;5098637;28;20248;-53
2022/08/09 01:45:38;;;;;;;6.07;5.70;;;17.40;99.90;;;;;;5096469;27;20204;-54
2022/08/09 01:48:06;;;;;;;5.97;5.67;;;17.30;99.90;;;;;;5090639;28;20777;-53
2022/08/09 01:50:34;;;;;;;6.20;5.90;;;17.30;99.90;;;;;;5102279;28;20292;-53
2022/08/09 01:53:03;;;;;;;6.13;5.73;;;17.20;99.90;;;;;;5101850;28;20273;-53
2022/08/09 01:55:32;;;;;;;6.70;6.30;;;17.20;99.90;;;;;;5093161;28;20200;-53
2022/08/09 01:58:01;;;;;;;5.63;5.33;;;17.10;99.90;;;;;;5094827;27;20235;-53
2022/08/09 02:00:32;;;;;;;6.70;6.27;;;17.10;99.90;;;;;;5086288;28;20266;-53
2022/08/09 02:03:00;;;;;;;7.10;6.70;;;17.10;99.90;;;;;;5095693;28;20243;-53
2022/08/09 02:05:28;;;;;;;6.63;6.20;;;17.10;99.90;;;;;;5091463;28;20228;-53
2022/08/09 02:08:00;;;;;;;6.23;5.93;;;17.00;99.90;;;;;;5098540;28;20192;-54
2022/08/09 02:10:31;;;;;;;6.43;6.03;;;17.00;99.90;;;;;;5084694;28;20189;-53
2022/08/09 02:13:01;;;;;;;7.23;6.83;;;17.00;99.90;;;;;;5083577;28;20284;-53
2022/08/09 02:15:32;;;;;;;6.63;6.20;;;17.00;99.90;;;;;;5091353;28;20735;-53
2022/08/09 02:18:00;;;;;;;7.37;6.97;;;17.10;99.90;;;;;;5083765;28;20212;-53
2022/08/09 02:20:31;;;;;;;8.23;7.63;;;17.20;99.90;;;;;;5092613;28;20248;-53
2022/08/09 02:23:06;;;;;;;7.03;6.40;;;17.20;99.90;;;;;;5089943;28;20331;-53
2022/08/09 02:25:36;;;;;;;6.57;6.17;;;17.20;99.90;;;;;;5095355;28;20205;-53
2022/08/09 02:28:10;;;;;;;6.60;6.10;;;17.10;99.90;;;;;;5093844;28;20731;-53
2022/08/09 02:30:43;;;;;;;5.60;5.30;;;17.10;99.90;;;;;;5092131;28;20235;-52
2022/08/09 02:33:12;;;;;;;5.57;5.30;;;17.10;99.90;;;;;;5094520;28;20281;-53
2022/08/09 02:35:41;;;;;;;5.80;5.50;;;17.10;99.90;;;;;;5087000;28;20194;-53
2022/08/09 02:38:10;;;;;;;6.40;6.00;;;17.10;99.90;;;;;;5083130;28;20266;-53
2022/08/09 02:40:39;;;;;;;5.83;5.50;;;17.00;99.90;;;;;;5090239;28;20249;-53
2022/08/09 02:43:10;;;;;;;5.33;5.13;;;17.00;99.90;;;;;;5093610;28;20223;-53
2022/08/09 02:45:44;;;;;;;5.70;5.50;;;16.90;99.90;;;;;;5101883;28;20667;-53
2022/08/09 02:48:14;;;;;;;6.23;6.03;;;16.90;99.90;;;;;;5096899;28;20200;-53
2022/08/09 02:50:45;;;;;;;6.37;6.07;;;16.90;99.90;;;;;;5071799;28;20359;-53
2022/08/09 02:53:18;;;;;;;5.67;5.43;;;16.80;99.90;;;;;;5089487;28;20239;-53
2022/08/09 02:55:47;;;;;;;5.73;5.43;;;16.80;99.90;;;;;;5072369;28;20562;-53
2022/08/09 02:58:16;;;;;;;6.40;6.00;;;16.80;99.90;;;;;;5092318;28;20243;-53
2022/08/09 03:00:45;;;;;;;6.70;6.30;;;16.70;99.90;;;;;;5089301;28;20200;-53
2022/08/09 03:03:15;;;;;;;5.73;5.53;;;16.70;99.90;;;;;;5070691;28;20722;-53
2022/08/09 03:05:43;;;;;;;7.13;6.63;;;16.70;99.90;;;;;;5081525;28;20201;-53
2022/08/09 03:08:12;;;;;;;6.97;6.67;;;16.70;99.90;;;;;;5083081;28;20188;-52
2022/08/09 03:10:41;;;;;;;6.37;6.07;;;16.70;99.90;;;;;;5091620;28;20196;-53
2022/08/09 03:13:09;;;;;;;6.43;6.13;;;16.70;99.90;;;;;;5094020;28;20220;-53
2022/08/09 03:15:38;;;;;;;5.63;5.43;;;16.70;99.90;;;;;;5094439;28;20204;-53
2022/08/09 03:18:07;;;;;;;5.37;5.17;;;16.70;99.90;;;;;;5080032;28;20290;-53
2022/08/09 03:20:34;;;;;;;6.00;5.80;;;16.70;99.90;;;;;;5094413;28;20281;-53
2022/08/09 03:23:01;;;;;;;7.30;6.80;;;16.50;99.90;;;;;;5078746;28;20220;-53
2022/08/09 03:25:30;;;;;;;6.43;6.23;;;16.50;99.90;;;;;;5071035;28;20205;-53
2022/08/09 03:27:59;;;;;;;6.90;6.60;;;16.40;99.90;;;;;;5071216;28;20197;-53
2022/08/09 03:30:26;;;;;;;7.13;6.77;;;16.30;99.90;;;;;;5093673;28;20231;-53
2022/08/09 03:32:56;;;;;;;8.00;7.60;;;16.40;99.90;;;;;;5080237;28;20644;-53
2022/08/09 03:35:25;;;;;;;6.53;6.27;;;16.40;99.90;;;;;;5076803;28;20731;-53
2022/08/09 03:37:55;;;;;;;6.63;6.10;;;16.50;99.90;;;;;;5092312;28;20211;-53
2022/08/09 03:40:22;;;;;;;7.87;7.53;;;16.50;99.90;;;;;;5092109;28;20204;-53
2022/08/09 03:42:49;;;;;;;7.13;6.77;;;16.50;99.90;;;;;;5089042;28;20248;-53
2022/08/09 03:45:16;;;;;;;6.37;6.00;;;16.50;99.90;;;;;;5084833;28;20201;-54
2022/08/09 03:47:43;;;;;;;6.80;6.50;;;16.50;99.90;;;;;;5070973;28;20232;-53
2022/08/09 03:50:12;;;;;;;6.50;6.20;;;16.50;99.90;;;;;;5087368;28;20293;-53
2022/08/09 03:52:42;;;;;;;7.07;6.67;;;16.30;99.90;;;;;;5089103;28;20229;-53
2022/08/09 03:55:11;;;;;;;6.00;5.77;;;16.30;99.90;;;;;;5086058;28;20250;-53
2022/08/09 03:57:39;;;;;;;7.17;6.67;;;16.20;99.90;;;;;;5095408;28;20585;-53
2022/08/09 04:00:07;;;;;;;7.17;6.87;;;16.10;99.90;;;;;;5099247;28;20201;-53
2022/08/09 04:02:35;;;;;;;7.30;7.00;;;16.10;99.90;;;;;;5101475;28;20196;-53
2022/08/09 04:05:03;;;;;;;6.93;6.63;;;16.00;99.90;;;;;;5084923;28;20263;-53
2022/08/09 04:07:30;;;;;;;7.00;6.50;;;15.90;99.90;;;;;;5092319;28;20242;-52
2022/08/09 04:09:59;;;;;;;7.73;7.30;;;15.90;99.90;;;;;;5083947;28;20250;-53
2022/08/09 04:12:41;;;;;;;8.90;8.40;;;16.00;99.90;;;;;;5092782;28;20725;-53
2022/08/09 04:15:09;;;;;;;8.20;7.60;;;16.00;99.90;;;;;;5091704;28;20201;-53
2022/08/09 04:17:36;;;;;;;8.83;8.33;;;16.00;99.90;;;;;;5092760;28;20242;-53
2022/08/09 04:20:04;;;;;;;8.27;7.87;;;16.00;99.90;;;;;;5092759;28;20200;-53
2022/08/09 04:22:31;;;;;;;8.40;8.00;;;16.00;99.90;;;;;;5094660;28;20196;-52
2022/08/09 04:25:00;;;;;;;7.00;6.70;;;16.10;99.90;;;;;;5090479;28;20535;-53
2022/08/09 04:27:27;;;;;;;7.87;7.47;;;16.00;99.90;;;;;;5092473;28;20631;-53
2022/08/09 04:29:54;;;;;;;7.70;7.30;;;16.00;99.90;;;;;;5092578;28;20614;-53
2022/08/09 04:32:21;;;;;;;7.60;7.30;;;16.10;99.90;;;;;;5091908;28;20200;-52
2022/08/09 04:34:49;;;;;;;6.83;6.53;;;16.10;99.90;;;;;;5092193;28;20225;-53
2022/08/09 04:37:16;;;;;;;8.37;7.87;;;16.10;99.90;;;;;;5092204;28;20602;-52
2022/08/09 04:39:43;;;;;;;8.77;8.37;;;16.10;99.90;;;;;;5090169;28;20244;-53
2022/08/09 04:42:12;;;;;;;7.43;7.10;;;16.10;99.90;;;;;;5088049;28;20199;-53
2022/08/09 04:44:39;;;;;;;8.27;7.67;;;16.20;99.90;;;;;;5088798;28;20235;-53
2022/08/09 04:47:06;;;;;;;7.53;7.17;;;16.20;99.90;;;;;;5092258;28;20242;-53
2022/08/09 04:49:36;;;;;;;7.33;6.93;;;16.30;99.90;;;;;;5092274;28;20658;-53
2022/08/09 04:52:04;;;;;;;8.20;7.90;;;16.50;99.90;;;;;;5094831;28;20196;-53
2022/08/09 04:54:31;;;;;;;10.30;8.97;;;16.70;99.90;;;;;;5088026;28;20299;-53
2022/08/09 04:56:58;;;;;;;9.37;8.87;;;17.10;99.90;;;;;;5091717;28;20209;-53
2022/08/09 04:59:27;;;;;;;8.37;7.87;;;17.60;99.90;;;;;;5092592;28;21060;-53
2022/08/09 05:01:54;;;;;;;9.97;9.13;;;18.20;99.90;;;;;;5092082;28;20204;-56
2022/08/09 05:04:21;;;;;;;10.53;9.73;;;18.80;99.90;;;;;;5091786;28;20212;-53
2022/08/09 05:06:48;;;;;;;11.90;11.03;;;19.30;99.90;;;;;;5087759;28;20196;-53
2022/08/09 05:09:15;;;;;;;10.57;9.87;;;19.40;99.90;;;;;;5089481;28;20210;-53
2022/08/09 05:11:42;;;;;;;10.53;9.63;;;19.50;99.90;;;;;;5092099;28;20200;-53
2022/08/09 05:14:10;;;;;;;10.90;10.03;;;20.00;99.90;;;;;;5090600;28;20220;-53
2022/08/09 05:16:38;;;;;;;9.90;9.13;;;20.70;99.90;;;;;;5085310;28;20200;-53
2022/08/09 05:19:06;;;;;;;10.10;9.53;;;21.40;99.90;;;;;;5090994;28;20247;-53
2022/08/09 05:21:34;;;;;;;8.40;8.00;;;22.00;99.90;;;;;;5089764;28;20706;-53
2022/08/09 05:24:01;;;;;;;8.33;7.83;;;22.20;99.90;;;;;;5091997;28;20230;-53
2022/08/09 05:26:28;;;;;;;7.17;6.77;;;22.80;99.90;;;;;;5091178;28;20623;-54
2022/08/09 05:28:56;;;;;;;6.13;5.83;;;23.40;99.90;;;;;;5089066;28;20201;-53
2022/08/09 05:31:23;;;;;;;5.43;5.23;;;23.60;99.90;;;;;;5089890;28;20345;-53
2022/08/09 05:33:51;;;;;;;4.10;3.90;;;24.00;99.90;;;;;;5088850;28;20647;-53
2022/08/09 05:36:18;;;;;;;3.77;3.63;;;24.30;99.90;;;;;;5093549;28;20285;-53
2022/08/09 05:38:46;;;;;;;3.70;3.60;;;25.00;99.90;;;;;;5090223;28;20224;-53
2022/08/09 05:41:13;;;;;;;3.47;3.37;;;25.60;99.90;;;;;;5090633;28;20204;-53
2022/08/09 05:43:40;;;;;;;2.87;2.83;;;26.30;99.90;;;;;;5089103;28;20242;-53
2022/08/09 05:46:07;;;;;;;3.20;3.00;;;26.70;99.90;;;;;;5089440;28;20250;-53
2022/08/09 05:48:34;;;;;;;3.13;2.83;;;26.90;99.90;;;;;;5090753;28;20196;-53
2022/08/09 05:51:02;;;;;;;3.63;3.43;;;27.30;99.90;;;;;;5090794;28;20295;-53
2022/08/09 05:53:29;;;;;;;3.13;3.03;;;27.60;99.90;;;;;;5090367;28;20257;-53
2022/08/09 05:55:56;;;;;;;2.70;2.63;;;28.10;99.90;;;;;;5086415;28;20636;-53
2022/08/09 05:58:23;;;;;;;3.10;3.00;;;28.20;99.90;;;;;;5091516;28;20208;-53
2022/08/09 06:00:51;;;;;;;2.78;2.65;;;28.10;99.90;;;;;;5089327;28;20196;-54
2022/08/09 06:03:18;;;;;;;2.55;2.35;;;28.30;99.90;;;;;;5087356;28;20220;-53
2022/08/09 06:05:44;;;;;;;3.22;3.13;;;28.50;99.90;;;;;;5088773;28;20204;-53
2022/08/09 06:08:13;;;;;;;2.50;2.40;;;28.70;99.90;;;;;;5087942;28;20618;-54
2022/08/09 06:10:41;;;;;;;2.85;2.85;;;29.10;99.90;;;;;;5084975;28;20232;-53
2022/08/09 06:13:09;;;;;;;2.25;2.15;;;29.60;99.90;;;;;;5088069;28;20678;-54
2022/08/09 06:15:36;;;;;;;2.92;2.83;;;29.60;99.90;;;;;;5088937;28;20321;-53
2022/08/09 06:18:03;;;;;;;2.88;2.67;;;29.70;99.90;;;;;;5089754;28;20204;-53
2022/08/09 06:20:31;;;;;;;4.43;3.03;;;30.10;99.90;;;;;;5085001;28;20269;-53
2022/08/09 06:22:58;;;;;;;2.85;2.67;;;30.20;99.90;;;;;;5088694;28;20232;-54
2022/08/09 06:25:27;;;;;;;2.97;2.88;;;29.90;99.90;;;;;;5090128;28;20205;-54
2022/08/09 06:27:55;;;;;;;3.40;3.30;;;29.50;99.90;;;;;;5091058;28;20688;-53
2022/08/09 06:30:22;;;;;;;3.72;3.50;;;28.90;99.90;;;;;;5090328;28;20215;-53
2022/08/09 06:32:51;;;;;;;3.47;3.38;;;28.80;99.90;;;;;;5083475;28;20200;-53
2022/08/09 06:35:18;;;;;;;3.65;3.45;;;29.10;99.90;;;;;;5084390;28;20470;-53
2022/08/09 06:37:45;;;;;;;5.20;3.17;;;29.00;99.90;;;;;;5089940;28;20189;-53
2022/08/09 06:40:14;;;;;;;3.40;3.30;;;29.10;99.90;;;;;;5087054;28;20220;-53
2022/08/09 06:42:42;;;;;;;3.28;3.15;;;28.60;99.90;;;;;;5086762;28;20286;-53
2022/08/09 06:45:10;;;;;;;3.40;3.30;;;28.80;99.90;;;;;;5090185;28;20200;-54
2022/08/09 06:47:37;;;;;;;2.72;2.63;;;28.40;99.90;;;;;;5089436;28;20201;-53
2022/08/09 06:50:05;;;;;;;2.40;2.30;;;29.00;99.90;;;;;;5080927;28;20717;-53
2022/08/09 06:52:32;;;;;;;3.30;3.20;;;29.50;99.90;;;;;;5081708;28;20254;-54
2022/08/09 06:54:59;;;;;;;3.75;3.63;;;29.00;99.90;;;;;;5080125;28;20285;-53
2022/08/09 06:57:26;;;;;;;3.35;3.25;;;29.10;99.90;;;;;;5081656;28;20698;-54
2022/08/09 06:59:54;;;;;;;3.70;3.50;;;29.20;99.90;;;;;;5081259;28;20216;-53
2022/08/09 07:02:21;;;;;;;2.88;2.88;;;29.30;99.90;;;;;;5083125;28;20919;-53
2022/08/09 07:04:48;;;;;;;2.88;2.88;;;29.60;99.90;;;;;;5080156;28;20265;-53
2022/08/09 07:07:15;;;;;;;3.15;3.05;;;29.70;99.90;;;;;;5087400;28;20223;-55
2022/08/09 07:09:43;;;;;;;3.78;3.45;;;29.90;99.90;;;;;;5082486;28;20279;-53
2022/08/09 07:12:11;;;;;;;3.38;3.17;;;30.20;99.90;;;;;;5096073;28;20238;-53
2022/08/09 07:14:38;;;;;;;5.65;3.85;;;30.30;99.90;;;;;;5091778;28;20223;-53
2022/08/09 07:17:06;;;;;;;3.17;3.08;;;29.60;99.90;;;;;;5085876;28;20571;-53
2022/08/09 07:19:33;;;;;;;3.60;3.50;;;30.20;99.90;;;;;;5087552;28;20261;-53
2022/08/09 07:22:00;;;;;;;3.47;3.38;;;30.50;99.90;;;;;;5087252;28;20239;-53
2022/08/09 07:24:30;;;;;;;3.30;3.30;;;30.90;99.90;;;;;;5080288;28;20769;-53
2022/08/09 07:26:57;;;;;;;3.75;3.55;;;30.90;99.90;;;;;;5085496;28;20200;-54
2022/08/09 07:29:25;;;;;;;4.32;3.22;;;31.20;99.90;;;;;;5082794;28;20204;-53
2022/08/09 07:31:52;;;;;;;3.60;3.40;;;31.70;99.30;;;;;;5089761;28;20685;-54
2022/08/09 07:34:20;;;;;;;3.47;3.38;;;32.10;98.50;;;;;;5080658;28;20221;-54
2022/08/09 07:36:47;;;;;;;3.58;3.42;;;32.10;98.40;;;;;;5086072;28;20235;-54
2022/08/09 07:39:14;;;;;;;3.45;3.35;;;31.80;98.80;;;;;;5091031;28;20840;-54
2022/08/09 07:41:41;;;;;;;3.00;2.80;;;31.90;98.60;;;;;;5094404;28;20200;-54
2022/08/09 07:44:09;;;;;;;3.10;3.00;;;32.10;98.00;;;;;;5101337;28;20259;-53
2022/08/09 07:46:36;;;;;;;3.17;2.97;;;32.70;98.20;;;;;;5094714;28;20195;-53
2022/08/09 07:49:03;;;;;;;2.97;2.85;;;31.80;97.50;;;;;;5081904;28;20196;-53
2022/08/09 07:51:32;;;;;;;2.97;2.85;;;31.40;98.50;;;;;;5086759;28;20215;-53
2022/08/09 07:53:59;;;;;;;2.55;2.38;;;32.10;98.60;;;;;;5084804;28;20220;-54
2022/08/09 07:56:26;;;;;;;2.83;2.83;;;32.20;97.40;;;;;;5084808;28;21033;-53
2022/08/09 07:58:54;;;;;;;2.78;2.67;;;30.80;98.20;;;;;;5086873;28;20266;-53
2022/08/09 08:01:21;;;;;;;3.30;3.10;;;31.40;98.90;;;;;;5084719;28;20196;-53
2022/08/09 08:03:48;;;;;;;4.10;3.33;;;31.70;98.90;;;;;;5087360;28;20266;-53
2022/08/09 08:06:15;;;;;;;4.05;3.85;;;31.40;99.20;;;;;;5096229;28;20245;-53
2022/08/09 08:08:43;;;;;;;3.80;3.60;;;31.60;99.50;;;;;;5093146;28;20204;-53
2022/08/09 08:11:10;;;;;;;3.53;3.38;;;32.20;99.00;;;;;;5093744;28;20242;-53
2022/08/09 08:13:37;;;;;;;3.67;3.58;;;32.10;98.60;;;;;;5097023;28;20786;-53
2022/08/09 08:16:04;;;;;;;4.88;4.10;;;32.10;98.70;;;;;;5085950;28;20226;-53
2022/08/09 08:18:31;;;;;;;3.60;3.55;;;30.80;98.70;;;;;;5078048;28;20201;-54
2022/08/09 08:20:58;;;;;;;3.38;3.30;;;30.50;99.90;;;;;;5089406;28;20216;-53
2022/08/09 08:23:25;;;;;;;3.65;3.55;;;30.90;99.90;;;;;;5098748;28;20232;-53
2022/08/09 08:25:53;;;;;;;3.58;3.47;;;31.90;99.90;;;;;;5096467;28;20218;-53
2022/08/09 08:28:21;;;;;;;3.08;3.08;;;32.00;99.70;;;;;;5095781;28;20224;-53
2022/08/09 08:30:48;;;;;;;2.97;2.97;;;31.50;99.40;;;;;;5095573;28;20200;-53
2022/08/09 08:33:15;;;;;;;4.03;3.92;;;31.10;99.90;;;;;;5095484;28;20217;-53
2022/08/09 08:35:42;;;;;;;4.20;4.07;;;30.50;99.90;;;;;;5088388;28;20197;-53
2022/08/09 08:38:09;;;;;;;4.35;4.05;;;30.20;99.90;;;;;;5091759;28;20257;-53
2022/08/09 08:40:37;;;;;;;4.30;3.83;;;29.50;99.90;;;;;;5087748;28;20580;-53
2022/08/09 08:43:06;;;;;;;3.72;3.50;;;30.00;99.90;;;;;;5087638;28;20713;-53
2022/08/09 08:45:34;;;;;;;3.53;3.33;;;29.80;99.90;;;;;;5091332;28;20830;-54
2022/08/09 08:48:02;;;;;;;3.45;3.35;;;30.60;99.90;;;;;;5081479;28;20342;-53
2022/08/09 08:50:29;;;;;;;3.22;3.10;;;30.70;99.90;;;;;;5086527;28;20213;-53
2022/08/09 08:52:57;;;;;;;3.65;3.55;;;30.30;99.90;;;;;;5090094;28;20253;-53
2022/08/09 08:55:24;;;;;;;3.17;2.97;;;31.30;99.90;;;;;;5091206;28;20192;-53
2022/08/09 08:57:51;;;;;;;2.80;2.80;;;31.90;98.30;;;;;;5082697;28;20215;-53
2022/08/09 09:00:19;;;;;;;3.22;3.00;;;32.10;98.70;;;;;;5086302;28;20208;-54
2022/08/09 09:02:47;;;;;;;3.35;3.25;;;32.10;98.50;;;;;;5089006;28;20249;-53
2022/08/09 09:05:19;;;;;;;6.32;3.28;;;31.80;97.50;;;;;;5090305;28;20277;-53
2022/08/09 09:07:49;;;;;;;2.80;2.80;;;31.80;97.90;;;;;;5082392;28;20684;-53
2022/08/09 09:10:17;;;;;;;2.88;2.67;;;31.60;96.90;;;;;;5079005;28;20249;-54
2022/08/09 09:12:45;;;;;;;2.40;2.40;;;32.00;97.30;;;;;;5091024;28;20245;-53
2022/08/09 09:15:12;;;;;;;3.10;2.92;;;32.10;96.60;;;;;;5085275;28;20677;-53
2022/08/09 09:17:41;;;;;;;3.15;2.75;;;32.40;97.10;;;;;;5083451;28;20205;-53
2022/08/09 09:20:09;;;;;;;2.67;2.58;;;32.00;98.70;;;;;;5084789;28;20212;-53
2022/08/09 09:22:51;;;;;;;3.25;3.05;;;31.90;96.50;;;;;;5088120;28;20568;-53
2022/08/09 09:25:32;;;;;;;2.80;2.70;;;31.60;97.00;;;;;;5086032;28;20196;-53
2022/08/09 09:27:59;;;;;;;2.38;2.28;;;31.60;98.00;;;;;;5089871;28;20279;-53
2022/08/09 09:30:26;;;;;;;2.78;2.47;;;31.80;96.90;;;;;;5077088;28;20205;-53
2022/08/09 09:33:07;;;;;;;3.17;3.08;;;31.30;97.60;;;;;;5090790;28;20713;-53
2022/08/09 09:35:50;;;;;;;2.85;2.80;;;31.40;97.70;;;;;;5083414;28;20197;-54
2022/08/09 09:38:17;;;;;;;2.97;2.88;;;31.70;97.50;;;;;;5083268;28;20257;-54
2022/08/09 09:40:44;;;;;;;2.63;2.53;;;31.70;95.20;;;;;;5082719;28;20216;-53
2022/08/09 09:43:18;;;;;;;2.55;2.45;;;31.40;96.40;;;;;;5093376;28;20228;-53
2022/08/09 09:45:50;;;;;;;2.55;2.35;;;31.40;96.90;;;;;;5084087;28;20200;-53
2022/08/09 09:48:20;;;;;;;2.47;2.38;;;31.10;97.20;;;;;;5085540;28;20283;-53
2022/08/09 09:50:49;;;;;;;2.45;2.35;;;30.80;97.20;;;;;;5090849;28;20562;-53
2022/08/09 09:53:18;;;;;;;2.58;2.20;;;31.30;96.30;;;;;;5095556;28;20269;-53
2022/08/09 09:55:58;;;;;;;2.92;2.67;;;31.10;96.60;;;;;;5095677;28;20203;-53
2022/08/09 09:58:26;;;;;;;2.30;2.20;;;31.00;97.70;;;;;;5083733;28;20196;-53
2022/08/09 10:00:55;;;;;;;2.22;2.13;;;31.50;97.10;;;;;;5085785;28;20259;-53
2022/08/09 10:03:44;;;;;;;1.88;1.88;;;31.60;95.30;;;;;;5081621;28;21860;-53
2022/08/09 10:06:11;;;;;;;2.00;2.00;;;32.00;96.20;;;;;;5085072;28;20254;-53
2022/08/09 10:08:38;;;;;;;2.33;1.98;;;31.50;95.70;;;;;;5078937;28;20199;-53
2022/08/09 10:11:19;;;;;;;2.50;2.42;;;31.70;96.70;;;;;;5079603;28;20242;-53
2022/08/09 10:13:47;;;;;;;2.53;2.20;;;31.40;95.70;;;;;;5087683;28;20216;-53
2022/08/09 10:16:14;;;;;;;3.38;3.17;;;30.90;96.10;;;;;;5083894;28;20257;-54
2022/08/09 10:18:52;;;;;;;2.42;2.33;;;31.00;95.20;;;;;;5080001;28;20196;-53
2022/08/09 10:21:19;;;;;;;1.95;1.85;;;31.80;95.70;;;;;;5081547;28;20219;-53
2022/08/09 10:23:48;;;;;;;2.10;1.88;;;31.80;95.10;;;;;;5080107;28;20299;-53
2022/08/09 10:26:15;;;;;;;2.00;1.90;;;31.40;95.30;;;;;;5085359;28;20292;-53
2022/08/09 10:28:43;;;;;;;2.00;1.90;;;31.80;94.10;;;;;;5082878;28;20200;-53
2022/08/09 10:31:12;;;;;;;1.88;1.88;;;31.40;95.40;;;;;;5081154;28;20691;-53
2022/08/09 10:33:40;;;;;;;1.90;1.90;;;31.50;95.00;;;;;;5084564;28;20216;-53
2022/08/09 10:36:10;;;;;;;1.80;1.80;;;31.40;94.40;;;;;;5077378;28;20196;-53
2022/08/09 10:38:38;;;;;;;1.80;1.70;;;31.30;94.90;;;;;;5081203;28;20196;-53
2022/08/09 10:41:06;;;;;;;2.15;1.92;;;30.90;95.30;;;;;;5080276;28;20220;-53
2022/08/09 10:43:34;;;;;;;2.05;1.95;;;31.00;94.80;;;;;;5078838;28;20262;-53
2022/08/09 10:46:15;;;;;;;2.38;2.28;;;30.80;95.80;;;;;;5083365;28;20211;-54
2022/08/09 10:48:47;;;;;;;2.22;2.00;;;30.80;95.70;;;;;;5081481;28;20219;-53
2022/08/09 10:51:29;;;;;;;2.20;2.10;;;31.00;95.80;;;;;;5081120;28;20200;-53
2022/08/09 10:54:00;;;;;;;2.40;2.38;;;30.70;94.70;;;;;;5080666;28;20792;-53
2022/08/09 10:56:29;;;;;;;2.38;2.03;;;30.60;95.90;;;;;;5082078;28;20222;-53
2022/08/09 10:58:58;;;;;;;1.98;1.88;;;30.30;95.00;;;;;;5083802;28;21323;-55
2022/08/09 11:01:41;;;;;;;1.85;1.75;;;30.30;95.00;;;;;;5075366;28;20226;-54
2022/08/09 11:04:14;;;;;;;1.50;1.50;;;30.20;97.20;;;;;;5077364;28;20221;-54
2022/08/09 11:06:44;;;;;;;2.60;1.30;;;29.90;95.80;;;;;;5086835;28;20200;-53
2022/08/09 11:09:15;;;;;;;1.35;1.23;;;29.70;95.10;;;;;;5070527;28;20197;-53
2022/08/09 11:12:16;;;;;;;4.03;2.40;;;29.40;96.50;;;;;;5071028;28;20227;-53
2022/08/09 11:14:47;;;;;;;1.75;1.65;;;28.90;96.20;;;;;;5024618;28;20220;-53
2022/08/09 11:17:43;;;;;;;2.65;1.67;;;28.90;97.10;;;;;;5031136;28;20209;-53
2022/08/09 11:20:11;;;;;;;1.48;1.38;;;28.70;97.60;;;;;;5051369;28;20617;-53
2022/08/09 11:22:59;;;;;;;1.40;1.40;;;28.50;97.00;;;;;;5077366;28;20336;-54
2022/08/09 11:25:37;;;;;;;1.60;1.50;;;28.20;97.20;;;;;;5076853;28;20618;-53
2022/08/09 11:28:32;;;;;;;1.60;1.60;;;28.40;98.00;;;;;;5088517;28;20213;-53
2022/08/09 11:30:59;;;;;;;1.88;1.77;;;28.50;98.30;;;;;;5080252;28;20212;-53
2022/08/09 11:33:41;;;;;;;1.55;1.55;;;28.60;97.90;;;;;;5087601;28;20213;-53
2022/08/09 11:36:09;;;;;;;1.70;1.67;;;28.30;97.60;;;;;;5085833;28;20205;-53
2022/08/09 11:38:38;;;;;;;1.88;1.88;;;28.00;97.80;;;;;;5097099;28;20200;-54
2022/08/09 11:41:27;;;;;;;1.65;1.65;;;28.20;99.10;;;;;;5077188;28;20274;-53
2022/08/09 11:43:54;;;;;;;1.75;1.75;;;28.40;99.20;;;;;;5083874;28;20281;-53
2022/08/09 11:46:22;;;;;;;1.98;1.88;;;28.50;98.40;;;;;;5081222;28;20193;-53
2022/08/09 11:48:51;;;;;;;1.80;1.80;;;28.30;97.40;;;;;;5079800;28;20344;-53
2022/08/09 11:51:19;;;;;;;1.35;1.35;;;28.50;96.70;;;;;;5081485;28;20197;-53
2022/08/09 11:53:49;;;;;;;1.55;1.20;;;28.70;97.50;;;;;;5080212;28;20357;-53
2022/08/09 11:56:26;;;;;;;1.50;1.50;;;28.70;94.90;;;;;;5080258;28;20276;-53
2022/08/09 11:58:56;;;;;;;1.60;1.60;;;28.80;96.30;;;;;;5079409;28;20303;-53
2022/08/09 12:01:42;;;;;;;1.20;1.13;;;28.80;95.90;;;;;;5078891;28;20632;-53
2022/08/09 12:04:12;;;;;;;1.80;1.70;;;28.70;95.30;;;;;;5088435;28;20589;-53
2022/08/09 12:06:40;;;;;;;1.58;1.52;;;28.80;97.30;;;;;;5095000;28;20192;-53
2022/08/09 12:09:10;;;;;;;1.67;1.40;;;28.70;95.80;;;;;;5090771;28;20204;-53
2022/08/09 12:11:37;;;;;;;2.05;1.85;;;28.50;97.30;;;;;;5089891;28;20204;-53
2022/08/09 12:14:07;;;;;;;2.00;1.48;;;28.50;95.00;;;;;;5080551;28;20236;-53
2022/08/09 12:16:37;;;;;;;2.15;1.98;;;28.50;97.30;;;;;;5091863;28;20206;-53
2022/08/09 12:19:05;;;;;;;1.58;1.48;;;28.50;95.80;;;;;;5079828;28;20201;-53
2022/08/09 12:21:34;;;;;;;2.47;2.20;;;28.60;95.00;;;;;;5079195;28;20212;-53
2022/08/09 12:24:03;;;;;;;2.65;1.27;;;28.60;95.30;;;;;;5093490;28;20220;-53
2022/08/09 12:26:46;;;;;;;1.60;1.60;;;28.60;95.90;;;;;;5095645;28;20721;-53
2022/08/09 12:29:18;;;;;;;2.17;1.27;;;28.40;95.50;;;;;;5096525;28;20674;-53
2022/08/09 12:31:47;;;;;;;1.20;1.10;;;28.40;98.10;;;;;;5083564;28;20199;-53
2022/08/09 12:34:14;;;;;;;4.55;1.40;;;28.30;96.20;;;;;;5081751;28;20224;-53
2022/08/09 12:36:52;;;;;;;1.98;1.40;;;28.10;96.40;;;;;;5082988;28;20224;-53
2022/08/09 12:39:19;;;;;;;1.77;1.65;;;28.00;96.70;;;;;;5082264;28;20208;-53
2022/08/09 12:41:48;;;;;;;2.60;1.25;;;28.10;98.10;;;;;;5084022;28;20224;-53
2022/08/09 12:44:15;;;;;;;2.30;1.10;;;28.10;96.50;;;;;;5083313;28;20591;-53
2022/08/09 12:46:46;;;;;;;1.10;1.10;;;28.10;95.80;;;;;;5085055;28;20205;-53
2022/08/09 12:49:14;;;;;;;1.80;1.80;;;28.00;96.50;;;;;;5088878;28;20242;-54
2022/08/09 12:51:52;;;;;;;1.27;1.27;;;28.10;97.10;;;;;;5084229;28;20529;-53
2022/08/09 12:54:19;;;;;;;1.55;1.55;;;28.10;96.70;;;;;;5082806;28;20728;-53
2022/08/09 12:56:49;;;;;;;1.88;1.75;;;28.10;96.60;;;;;;5081375;28;20196;-53